KBWG/BWG METAR and TAF weather

Enter ICAO airport designator
Station Type Date Time Source
KBWG METAR 2018/12/13 14:53 UTC NOAA

KBWG 131453Z AUTO 15005KT 10SM OVC080 10/06 A3012 RMK AO2 RAB07E35 SLP197 P0000 60000 T01000056 50005


Station Type Date Time Source
KBWG Decoded METAR 2018/12/13 14:53 UTC NOAA

BOWLING GREEN-WARREN CO RGNL, KY, United States (KBWG) 36-58N 086-25W 161M
Dec 13, 2018 - 09:53 AM EST / 2018.12.13 1453 UTC
Wind: from the SSE (150 degrees) at 6 MPH (5 KT):0
Visibility: 10 mile(s):0
Sky conditions: overcast
Precipitation last hour: A trace
Temperature: 50.0 F (10.0 C)
Dew Point: 42.1 F (5.6 C)
Relative Humidity: 74%
Pressure (altimeter): 30.12 in. Hg (1019 hPa)
Pressure tendency: 0.01 inches (0.5 hPa) higher than three hours ago
ob: KBWG 131453Z AUTO 15005KT 10SM OVC080 10/06 A3012 RMK AO2 RAB07E35 SLP197 P0000 60000 T01000056 50005
cycle: 15

Station Type Date Time Source
KBWG TAF 2018/12/13 12:28 UTC NOAA

TAF KBWG 131126Z 1312/1412 15004KT P6SM VCSH OVC045
FM131500 16008KT P6SM BKN060
FM131700 17011G16KT P6SM BKN080
FM132100 16010KT P6SM SCT027
FM140100 14006KT P6SM FEW150


Example: see airport list